Time;durP1;ratioP1;P1;durP2;ratioP2;P2;SDS_P1;SDS_P2;PMS_P1;PMS_P2;Temp;Humidity;BMP_temperature;BMP_pressure;BME280_temperature;BME280_humidity;BME280_pressure;Samples;Min_cycle;Max_cycle;Signal;HPM_P1;HPM_P2
2023/10/16 00:01:22;;;;;;;4.80;0.93;;;;;;;;;;4958093;28;20039;-79
2023/10/16 00:03:49;;;;;;;3.53;0.65;;;;;;;;;;4951508;28;20148;-79
2023/10/16 00:06:14;;;;;;;6.15;0.90;;;;;;;;;;4962722;28;20419;-78
2023/10/16 00:08:47;;;;;;;4.03;1.00;;;;;;;;;;4963106;28;20035;-77
2023/10/16 00:11:16;;;;;;;5.43;1.00;;;;;;;;;;4955210;28;20050;-79
2023/10/16 00:13:42;;;;;;;8.00;0.90;;;;;;;;;;4956349;28;20035;-78
2023/10/16 00:16:08;;;;;;;4.18;0.80;;;;;;;;;;4973109;28;20042;-79
2023/10/16 00:18:35;;;;;;;4.50;1.23;;;;;;;;;;4956456;28;20364;-79
2023/10/16 00:21:04;;;;;;;3.78;0.65;;;;;;;;;;4971577;28;20088;-78
2023/10/16 00:23:30;;;;;;;5.32;1.10;;;;;;;;;;4972244;28;20890;-78
2023/10/16 00:25:58;;;;;;;6.63;1.02;;;;;;;;;;4946471;28;20053;-78
2023/10/16 00:28:23;;;;;;;4.72;0.82;;;;;;;;;;4971304;28;20062;-80
2023/10/16 00:30:50;;;;;;;3.53;0.80;;;;;;;;;;4946980;28;20066;-78
2023/10/16 00:33:16;;;;;;;6.13;0.90;;;;;;;;;;4956477;28;20445;-78
2023/10/16 00:35:43;;;;;;;3.72;0.80;;;;;;;;;;4955127;28;20376;-78
2023/10/16 00:38:13;;;;;;;5.37;1.10;;;;;;;;;;4940409;28;20093;-78
2023/10/16 00:40:51;;;;;;;6.25;1.00;;;;;;;;;;4954555;28;20118;-79
2023/10/16 00:43:20;;;;;;;4.65;1.20;;;;;;;;;;4971554;28;20039;-77
2023/10/16 00:45:59;;;;;;;2.65;0.75;;;;;;;;;;4962351;28;20121;-78
2023/10/16 00:48:24;;;;;;;5.63;1.00;;;;;;;;;;4957905;28;20077;-78
2023/10/16 00:50:50;;;;;;;3.70;1.02;;;;;;;;;;4957438;28;20078;-78
2023/10/16 00:53:20;;;;;;;4.05;1.00;;;;;;;;;;4971720;28;20042;-79
2023/10/16 00:55:48;;;;;;;4.30;1.27;;;;;;;;;;4944803;28;20035;-79
2023/10/16 00:58:14;;;;;;;7.47;1.20;;;;;;;;;;4940801;28;20042;-78
2023/10/16 01:00:45;;;;;;;6.93;1.23;;;;;;;;;;4945372;28;20043;-78
2023/10/16 01:03:11;;;;;;;8.73;1.38;;;;;;;;;;4939119;28;20499;-79
2023/10/16 01:05:41;;;;;;;4.35;1.10;;;;;;;;;;4955564;28;20050;-78
2023/10/16 01:08:07;;;;;;;4.10;0.90;;;;;;;;;;4955575;28;20419;-78
2023/10/16 01:10:34;;;;;;;4.80;1.00;;;;;;;;;;4938708;28;20053;-78
2023/10/16 01:13:01;;;;;;;3.35;1.13;;;;;;;;;;4959956;28;20471;-79
2023/10/16 01:15:27;;;;;;;3.65;1.02;;;;;;;;;;4951675;28;20042;-78
2023/10/16 01:17:53;;;;;;;3.28;0.85;;;;;;;;;;4945784;28;20498;-79
2023/10/16 01:20:18;;;;;;;4.25;0.90;;;;;;;;;;4961355;28;20111;-79
2023/10/16 01:22:47;;;;;;;4.78;1.02;;;;;;;;;;4977762;28;20372;-80
2023/10/16 01:25:14;;;;;;;5.65;1.20;;;;;;;;;;4945477;28;20048;-78
2023/10/16 01:27:40;;;;;;;5.07;1.10;;;;;;;;;;4968526;28;20036;-78
2023/10/16 01:30:06;;;;;;;5.97;0.95;;;;;;;;;;4964783;28;20039;-78
2023/10/16 01:32:32;;;;;;;5.72;1.33;;;;;;;;;;4949723;28;20034;-78
2023/10/16 01:35:00;;;;;;;4.82;0.90;;;;;;;;;;4944112;28;20043;-78
2023/10/16 01:37:26;;;;;;;5.03;1.10;;;;;;;;;;4962172;28;20498;-78
2023/10/16 01:39:55;;;;;;;5.85;0.88;;;;;;;;;;4952582;28;20042;-79
2023/10/16 01:42:21;;;;;;;7.57;1.20;;;;;;;;;;4961340;28;20054;-79
2023/10/16 01:44:48;;;;;;;4.03;0.80;;;;;;;;;;4961381;28;20031;-79
2023/10/16 01:47:15;;;;;;;3.95;0.98;;;;;;;;;;4968298;28;20065;-79
2023/10/16 01:49:44;;;;;;;5.13;1.13;;;;;;;;;;4978203;28;20085;-79
2023/10/16 01:52:11;;;;;;;3.63;0.93;;;;;;;;;;4945960;28;20114;-79
2023/10/16 01:54:38;;;;;;;3.27;1.00;;;;;;;;;;4961530;28;20031;-79
2023/10/16 01:57:10;;;;;;;4.55;1.02;;;;;;;;;;4945325;28;20774;-79
2023/10/16 01:59:47;;;;;;;5.28;1.10;;;;;;;;;;4962235;28;20129;-79
2023/10/16 02:02:13;;;;;;;4.10;0.88;;;;;;;;;;4945801;28;20055;-79
2023/10/16 02:04:39;;;;;;;7.13;0.95;;;;;;;;;;4962401;28;20061;-79
2023/10/16 02:07:08;;;;;;;7.97;1.35;;;;;;;;;;4967277;28;20074;-79
2023/10/16 02:09:38;;;;;;;3.90;0.80;;;;;;;;;;4960671;28;20065;-80
2023/10/16 02:12:16;;;;;;;7.70;1.25;;;;;;;;;;4961924;28;20117;-79
2023/10/16 02:14:42;;;;;;;4.32;0.93;;;;;;;;;;4977131;28;20115;-79
2023/10/16 02:17:21;;;;;;;4.35;1.15;;;;;;;;;;4951493;28;20134;-79
2023/10/16 02:19:47;;;;;;;6.45;0.90;;;;;;;;;;4980791;28;20030;-79
2023/10/16 02:22:14;;;;;;;3.83;0.70;;;;;;;;;;4960126;28;20035;-79
2023/10/16 02:24:40;;;;;;;8.68;1.35;;;;;;;;;;4958435;28;20032;-78
2023/10/16 02:27:11;;;;;;;4.30;1.10;;;;;;;;;;4959003;28;20097;-79
2023/10/16 02:29:37;;;;;;;5.70;1.00;;;;;;;;;;4949140;28;20580;-79
2023/10/16 02:32:05;;;;;;;;;;;;;;;;;;4959873;28;20062;-79
2023/10/16 02:34:36;;;;;;;4.68;1.20;;;;;;;;;;4974884;28;19921;-79
2023/10/16 02:37:01;;;;;;;6.57;1.40;;;;;;;;;;4956924;28;20557;-79
2023/10/16 02:39:37;;;;;;;5.75;1.08;;;;;;;;;;4964775;28;20038;-79
2023/10/16 02:42:07;;;;;;;7.25;1.30;;;;;;;;;;4971607;28;20046;-79
2023/10/16 02:44:38;;;;;;;6.05;1.15;;;;;;;;;;4956926;28;20038;-79
2023/10/16 02:47:06;;;;;;;5.22;1.23;;;;;;;;;;4973588;28;20039;-79
2023/10/16 02:49:33;;;;;;;4.13;0.95;;;;;;;;;;4960629;28;20036;-79
2023/10/16 02:51:59;;;;;;;5.65;1.08;;;;;;;;;;4956852;28;20042;-78
2023/10/16 02:54:24;;;;;;;4.35;1.00;;;;;;;;;;4941648;28;20401;-79
2023/10/16 02:56:54;;;;;;;4.07;0.80;;;;;;;;;;4973024;28;20380;-79
2023/10/16 02:59:19;;;;;;;4.97;1.00;;;;;;;;;;4960375;28;20039;-79
2023/10/16 03:01:46;;;;;;;5.75;0.98;;;;;;;;;;4956770;28;20058;-79
2023/10/16 03:04:15;;;;;;;5.20;1.15;;;;;;;;;;4957410;28;20165;-79
2023/10/16 03:06:41;;;;;;;6.10;2.03;;;;;;;;;;4957493;28;20087;-78
2023/10/16 03:09:25;;;;;;;4.43;0.95;;;;;;;;;;4941309;28;20640;-78
2023/10/16 03:11:57;;;;;;;6.82;1.00;;;;;;;;;;4956936;28;20043;-79
2023/10/16 03:14:22;;;;;;;4.53;1.00;;;;;;;;;;4958102;28;20043;-79
2023/10/16 03:16:48;;;;;;;4.57;1.15;;;;;;;;;;4957677;28;20468;-79
2023/10/16 03:19:16;;;;;;;6.13;1.05;;;;;;;;;;4940756;28;20121;-79
2023/10/16 03:21:45;;;;;;;6.53;1.13;;;;;;;;;;4957076;28;20530;-79
2023/10/16 03:24:10;;;;;;;8.43;1.52;;;;;;;;;;4941534;28;20061;-79
2023/10/16 03:26:42;;;;;;;4.22;1.08;;;;;;;;;;4960935;28;20035;-80
2023/10/16 03:29:07;;;;;;;6.00;1.45;;;;;;;;;;4950972;28;20974;-79
2023/10/16 03:31:36;;;;;;;7.10;1.30;;;;;;;;;;4943004;28;20071;-77
2023/10/16 03:34:02;;;;;;;7.68;1.17;;;;;;;;;;4963952;28;20950;-78
2023/10/16 03:36:28;;;;;;;5.97;1.20;;;;;;;;;;4957309;28;20030;-78
2023/10/16 03:38:57;;;;;;;8.00;1.30;;;;;;;;;;4938327;28;20042;-78
2023/10/16 03:44:13;;;;;;;5.97;1.20;;;;;;;;;;4950216;28;20129;-79
2023/10/16 03:46:41;;;;;;;6.40;1.40;;;;;;;;;;4949226;28;20527;-80
2023/10/16 03:49:07;;;;;;;5.32;1.30;;;;;;;;;;4964893;28;20050;-78
2023/10/16 03:51:33;;;;;;;5.85;1.08;;;;;;;;;;4956593;28;20479;-78
2023/10/16 03:53:58;;;;;;;5.13;1.13;;;;;;;;;;4941223;28;20031;-79
2023/10/16 03:56:27;;;;;;;4.43;1.00;;;;;;;;;;4939798;28;20039;-79
2023/10/16 03:58:55;;;;;;;8.77;1.40;;;;;;;;;;4946602;28;20062;-78
2023/10/16 04:01:27;;;;;;;3.97;0.95;;;;;;;;;;4941775;28;20039;-78
2023/10/16 04:03:58;;;;;;;6.00;1.27;;;;;;;;;;4941960;28;20035;-78
2023/10/16 04:06:25;;;;;;;5.00;1.00;;;;;;;;;;4955763;28;20042;-78
2023/10/16 04:08:52;;;;;;;4.38;1.15;;;;;;;;;;4939181;28;20064;-78
2023/10/16 04:11:19;;;;;;;4.20;1.05;;;;;;;;;;4961098;28;20058;-79
2023/10/16 04:13:48;;;;;;;6.93;1.43;;;;;;;;;;4955269;28;20187;-78
2023/10/16 04:21:43;;;;;;;6.45;0.90;;;;;;;;;;4969419;28;20035;-77
2023/10/16 04:29:33;;;;;;;4.95;1.10;;;;;;;;;;4953443;28;20042;-78
2023/10/16 04:32:10;;;;;;;;;;;;;;;;;;4970974;28;20047;-78
2023/10/16 04:34:52;;;;;;;7.45;1.27;;;;;;;;;;4968634;28;19922;-79
2023/10/16 04:48:08;;;;;;;4.18;0.95;;;;;;;;;;4967799;28;20043;-78
2023/10/16 04:53:07;;;;;;;6.82;1.25;;;;;;;;;;4947443;28;20035;-78
2023/10/16 05:11:36;;;;;;;8.80;1.38;;;;;;;;;;4954137;28;20057;-78
2023/10/16 05:14:22;;;;;;;3.92;1.05;;;;;;;;;;4962237;28;20424;-77
2023/10/16 06:14:14;;;;;;;4.28;1.40;;;;;;;;;;4958599;28;20033;-80
2023/10/16 06:16:40;;;;;;;8.57;1.33;;;;;;;;;;4959463;28;20043;-80
2023/10/16 06:19:17;;;;;;;8.00;1.80;;;;;;;;;;4964845;28;20042;-80
2023/10/16 06:21:50;;;;;;;5.38;1.20;;;;;;;;;;4957014;28;20042;-80
2023/10/16 06:24:25;;;;;;;3.35;1.17;;;;;;;;;;4965091;28;20093;-80
2023/10/16 06:26:57;;;;;;;5.45;1.35;;;;;;;;;;4960250;28;20917;-80
2023/10/16 06:29:34;;;;;;;6.85;1.73;;;;;;;;;;4958469;28;20035;-80
2023/10/16 06:32:06;;;;;;;6.85;1.30;;;;;;;;;;4941603;28;20404;-80
2023/10/16 06:34:34;;;;;;;7.53;1.40;;;;;;;;;;4949637;28;20526;-78
2023/10/16 06:37:06;;;;;;;5.90;1.50;;;;;;;;;;4957558;28;20155;-79
2023/10/16 06:39:35;;;;;;;10.38;1.50;;;;;;;;;;4948442;28;20117;-79
2023/10/16 06:42:02;;;;;;;8.18;1.48;;;;;;;;;;4948323;28;20070;-80
2023/10/16 06:44:28;;;;;;;6.45;1.48;;;;;;;;;;4963945;28;20604;-79
2023/10/16 06:47:00;;;;;;;5.55;1.38;;;;;;;;;;4962813;28;20038;-79
2023/10/16 06:49:28;;;;;;;6.78;1.40;;;;;;;;;;4956759;28;20560;-79
2023/10/16 06:51:56;;;;;;;5.22;1.42;;;;;;;;;;4974145;28;20041;-79
2023/10/16 06:54:25;;;;;;;4.50;1.33;;;;;;;;;;4972103;28;20043;-79
2023/10/16 06:56:51;;;;;;;6.53;1.52;;;;;;;;;;4975910;28;20395;-79
2023/10/16 06:59:17;;;;;;;5.47;1.45;;;;;;;;;;4946617;28;20120;-79
2023/10/16 07:02:03;;;;;;;5.82;1.50;;;;;;;;;;4973033;28;20535;-80
2023/10/16 07:04:29;;;;;;;6.20;1.55;;;;;;;;;;4871722;29;20055;-79
2023/10/16 07:06:57;;;;;;;4.10;1.40;;;;;;;;;;4869140;29;20051;-78
2023/10/16 07:09:38;;;;;;;7.22;1.55;;;;;;;;;;4870675;29;20049;-78
2023/10/16 07:12:04;;;;;;;3.78;1.38;;;;;;;;;;4885714;29;20063;-79
2023/10/16 07:14:30;;;;;;;9.18;1.52;;;;;;;;;;4868464;29;20462;-78
2023/10/16 07:16:58;;;;;;;4.80;1.48;;;;;;;;;;4885901;29;20517;-79
2023/10/16 07:19:25;;;;;;;5.78;1.38;;;;;;;;;;4888155;29;20603;-78
2023/10/16 07:21:51;;;;;;;7.57;1.67;;;;;;;;;;4868233;29;20541;-78
2023/10/16 07:24:16;;;;;;;6.03;1.50;;;;;;;;;;4870469;29;20044;-79
2023/10/16 07:26:44;;;;;;;6.35;1.67;;;;;;;;;;4870538;29;20056;-79
2023/10/16 07:29:11;;;;;;;7.63;1.50;;;;;;;;;;4871876;29;20445;-79
2023/10/16 07:31:37;;;;;;;5.57;1.75;;;;;;;;;;4886150;29;20096;-79
2023/10/16 07:34:04;;;;;;;4.80;1.33;;;;;;;;;;4885568;29;20493;-78
2023/10/16 07:36:30;;;;;;;4.25;1.20;;;;;;;;;;4885431;29;20627;-78
2023/10/16 07:38:59;;;;;;;7.15;1.30;;;;;;;;;;4872429;29;20037;-79
2023/10/16 07:41:25;;;;;;;8.50;1.73;;;;;;;;;;4907143;28;20053;-78
2023/10/16 07:43:56;;;;;;;4.30;1.40;;;;;;;;;;4929525;28;20449;-79
2023/10/16 07:46:30;;;;;;;4.55;1.40;;;;;;;;;;4965708;28;20054;-80
2023/10/16 07:49:25;;;;;;;3.70;1.33;;;;;;;;;;4955402;28;20513;-79
2023/10/16 07:51:52;;;;;;;6.03;1.10;;;;;;;;;;4961162;28;20042;-80
2023/10/16 07:54:20;;;;;;;5.32;1.33;;;;;;;;;;4963145;28;20517;-79
2023/10/16 07:56:45;;;;;;;;;;;;;;;;;;4942483;28;20950;-80
2023/10/16 07:59:18;;;;;;;6.47;1.52;;;;;;;;;;4959872;28;19960;-80
2023/10/16 08:02:08;;;;;;;5.03;1.50;;;;;;;;;;4962561;28;20050;-79
2023/10/16 08:04:36;;;;;;;6.55;1.23;;;;;;;;;;4975737;28;20062;-81
2023/10/16 08:07:04;;;;;;;3.28;1.17;;;;;;;;;;4938046;28;20048;-79
2023/10/16 08:14:45;;;;;;;4.60;1.30;;;;;;;;;;4946816;28;20045;-80
2023/10/16 08:17:17;;;;;;;4.80;1.35;;;;;;;;;;4978465;28;20066;-80
2023/10/16 08:19:43;;;;;;;4.22;1.50;;;;;;;;;;4947465;28;20121;-79
2023/10/16 08:22:13;;;;;;;5.70;1.20;;;;;;;;;;4952006;28;20045;-80
2023/10/16 08:24:57;;;;;;;6.22;1.25;;;;;;;;;;4957081;28;20046;-77
2023/10/16 08:27:41;;;;;;;8.23;1.40;;;;;;;;;;4946791;28;20145;-78
2023/10/16 08:30:32;;;;;;;7.47;1.60;;;;;;;;;;4962073;28;20030;-79
2023/10/16 08:33:08;;;;;;;5.22;1.25;;;;;;;;;;4960169;28;20088;-79
2023/10/16 08:35:41;;;;;;;4.60;1.50;;;;;;;;;;4953666;28;20061;-78
2023/10/16 08:38:11;;;;;;;6.53;1.33;;;;;;;;;;4947324;28;20042;-79
2023/10/16 08:41:07;;;;;;;7.55;1.63;;;;;;;;;;4960852;28;20061;-79
2023/10/16 08:46:44;;;;;;;10.35;2.00;;;;;;;;;;4922208;29;20135;-79
2023/10/16 08:49:08;;;;;;;3.80;0.85;;;;;;;;;;4922956;28;20040;-78
2023/10/16 08:51:38;;;;;;;3.90;1.00;;;;;;;;;;4906904;29;20031;-79
2023/10/16 08:54:05;;;;;;;4.38;1.00;;;;;;;;;;4898270;29;20040;-79
2023/10/16 08:56:31;;;;;;;4.43;1.15;;;;;;;;;;4883121;29;20040;-78
2023/10/16 08:59:01;;;;;;;6.97;1.40;;;;;;;;;;4887324;29;20099;-79
2023/10/16 09:01:28;;;;;;;4.35;1.00;;;;;;;;;;4881857;29;20138;-79
2023/10/16 09:04:13;;;;;;;2.97;1.00;;;;;;;;;;4907107;29;20041;-78
2023/10/16 09:06:38;;;;;;;5.82;1.55;;;;;;;;;;4922732;29;20151;-77
2023/10/16 09:09:25;;;;;;;6.65;1.17;;;;;;;;;;4908514;29;20587;-79
2023/10/16 09:11:51;;;;;;;6.38;1.20;;;;;;;;;;4893206;29;20056;-79
2023/10/16 09:14:20;;;;;;;4.75;1.30;;;;;;;;;;4906631;29;20528;-80
2023/10/16 09:16:51;;;;;;;3.92;1.00;;;;;;;;;;4906190;29;20044;-79
2023/10/16 09:19:19;;;;;;;4.20;0.90;;;;;;;;;;4921804;28;20102;-81
2023/10/16 09:21:45;;;;;;;;;;;;;;;;;;4958475;28;20061;-79
2023/10/16 09:24:14;;;;;;;4.28;1.15;;;;;;;;;;4972388;28;19918;-80
2023/10/16 09:26:45;;;;;;;5.07;1.00;;;;;;;;;;4944536;28;20715;-77
2023/10/16 09:29:14;;;;;;;5.50;1.23;;;;;;;;;;4933919;28;20165;-78
2023/10/16 09:31:49;;;;;;;5.90;1.20;;;;;;;;;;4952341;28;20364;-78
2023/10/16 09:34:20;;;;;;;5.07;1.38;;;;;;;;;;4946330;28;20045;-79
2023/10/16 09:39:52;;;;;;;4.78;1.45;;;;;;;;;;4954806;28;20038;-79
2023/10/16 09:42:24;;;;;;;5.03;1.05;;;;;;;;;;4940591;28;20498;-79
2023/10/16 09:44:56;;;;;;;4.88;1.00;;;;;;;;;;4935838;28;20602;-79
2023/10/16 09:47:26;;;;;;;5.80;1.15;;;;;;;;;;4963870;28;20593;-78
2023/10/16 09:49:55;;;;;;;5.75;1.42;;;;;;;;;;4963338;28;20054;-79
2023/10/16 09:52:22;;;;;;;4.65;1.20;;;;;;;;;;4963390;28;20035;-79
2023/10/16 09:54:48;;;;;;;5.82;1.30;;;;;;;;;;4957342;28;20050;-78
2023/10/16 09:57:19;;;;;;;5.57;1.23;;;;;;;;;;4946783;28;20432;-78
2023/10/16 09:59:45;;;;;;;5.13;1.10;;;;;;;;;;4950467;28;20154;-80
2023/10/16 10:02:18;;;;;;;7.25;2.55;;;;;;;;;;4941842;28;20158;-78
2023/10/16 10:04:53;;;;;;;9.43;3.10;;;;;;;;;;4958200;28;20102;-79
2023/10/16 10:07:20;;;;;;;6.88;2.78;;;;;;;;;;4963503;28;20043;-80
2023/10/16 10:09:53;;;;;;;5.35;1.50;;;;;;;;;;4972734;28;20519;-79
2023/10/16 10:12:27;;;;;;;7.90;1.50;;;;;;;;;;4956386;28;20479;-79
2023/10/16 10:15:12;;;;;;;5.55;1.10;;;;;;;;;;4946346;28;20411;-79
2023/10/16 10:17:46;;;;;;;4.32;1.30;;;;;;;;;;4964167;28;20034;-79
2023/10/16 10:20:25;;;;;;;5.47;0.80;;;;;;;;;;4933275;28;20503;-80
2023/10/16 10:22:56;;;;;;;5.28;1.08;;;;;;;;;;4959666;28;20034;-80
2023/10/16 10:25:41;;;;;;;3.30;0.88;;;;;;;;;;4958340;28;20062;-80
2023/10/16 10:28:25;;;;;;;2.42;0.70;;;;;;;;;;4957082;28;20077;-79
2023/10/16 10:31:02;;;;;;;6.07;1.05;;;;;;;;;;4962894;28;20286;-79
2023/10/16 10:33:42;;;;;;;4.65;0.82;;;;;;;;;;4943069;28;20093;-79
2023/10/16 10:36:30;;;;;;;6.45;1.65;;;;;;;;;;4975707;28;20126;-80
2023/10/16 10:42:10;;;;;;;5.72;0.90;;;;;;;;;;4957899;28;20499;-81
2023/10/16 10:45:17;;;;;;;5.13;0.80;;;;;;;;;;4973575;28;20046;-80
2023/10/16 10:47:42;;;;;;;;;;;;;;;;;;4959614;28;20491;-79
2023/10/16 10:50:14;;;;;;;3.13;0.98;;;;;;;;;;4967298;28;19922;-81
2023/10/16 10:52:43;;;;;;;5.32;1.35;;;;;;;;;;4963109;28;20057;-80
2023/10/16 10:55:18;;;;;;;5.22;1.08;;;;;;;;;;4973786;28;20047;-79
2023/10/16 10:57:48;;;;;;;4.35;1.13;;;;;;;;;;4970577;28;20077;-80
2023/10/16 11:00:43;;;;;;;5.07;1.02;;;;;;;;;;4958046;28;20158;-78
2023/10/16 11:03:10;;;;;;;4.63;0.93;;;;;;;;;;4956059;28;20133;-80
2023/10/16 11:05:43;;;;;;;4.30;1.50;;;;;;;;;;4949928;28;20182;-79
2023/10/16 11:10:42;;;;;;;2.65;0.90;;;;;;;;;;4977991;28;20051;-79
2023/10/16 11:13:09;;;;;;;6.35;1.20;;;;;;;;;;4962823;28;20039;-80
2023/10/16 11:15:35;;;;;;;5.17;1.10;;;;;;;;;;4947794;28;20031;-79
2023/10/16 11:18:12;;;;;;;3.72;0.80;;;;;;;;;;4957566;28;20054;-80
2023/10/16 11:20:39;;;;;;;3.20;0.90;;;;;;;;;;4938072;28;20038;-80
2023/10/16 11:23:14;;;;;;;4.22;0.80;;;;;;;;;;4946690;28;20059;-79
2023/10/16 11:25:50;;;;;;;4.18;0.90;;;;;;;;;;4940715;28;20046;-79
2023/10/16 11:28:32;;;;;;;4.28;0.95;;;;;;;;;;4956171;28;20101;-79
2023/10/16 11:30:59;;;;;;;4.40;0.93;;;;;;;;;;4956397;28;20035;-79
2023/10/16 11:33:34;;;;;;;3.77;0.70;;;;;;;;;;4963067;28;20118;-80
2023/10/16 11:36:03;;;;;;;2.17;0.60;;;;;;;;;;4957368;28;20293;-80
2023/10/16 11:38:29;;;;;;;4.53;0.75;;;;;;;;;;4963086;28;20936;-79
2023/10/16 11:40:56;;;;;;;3.38;0.80;;;;;;;;;;4946993;28;20114;-79
2023/10/16 11:43:21;;;;;;;5.53;0.73;;;;;;;;;;4940195;28;20891;-80
2023/10/16 11:45:56;;;;;;;4.32;0.70;;;;;;;;;;4946105;28;20039;-80
2023/10/16 11:51:06;;;;;;;4.15;0.95;;;;;;;;;;4969984;28;20554;-79
2023/10/16 11:53:32;;;;;;;4.60;0.98;;;;;;;;;;4948928;28;20038;-79
2023/10/16 11:55:57;;;;;;;23.55;2.58;;;;;;;;;;4944550;28;20036;-79
2023/10/16 11:58:23;;;;;;;4.93;1.00;;;;;;;;;;4959041;28;20126;-79
2023/10/16 12:00:57;;;;;;;5.57;1.00;;;;;;;;;;4955839;28;20035;-79
2023/10/16 12:03:23;;;;;;;3.47;0.60;;;;;;;;;;4978465;28;20062;-79
2023/10/16 12:05:55;;;;;;;5.20;1.13;;;;;;;;;;4939272;28;20080;-80
2023/10/16 12:08:21;;;;;;;4.78;0.82;;;;;;;;;;4958676;28;20503;-80
2023/10/16 12:10:50;;;;;;;3.97;1.08;;;;;;;;;;4971806;28;20530;-79
2023/10/16 12:13:16;;;;;;;3.33;0.73;;;;;;;;;;4955882;28;20093;-78
2023/10/16 12:15:46;;;;;;;5.15;0.82;;;;;;;;;;4955669;28;20998;-80
2023/10/16 12:18:12;;;;;;;4.30;0.73;;;;;;;;;;4956109;28;20042;-79
2023/10/16 12:20:39;;;;;;;3.75;0.70;;;;;;;;;;4955778;28;20062;-78
2023/10/16 12:23:13;;;;;;;5.88;0.98;;;;;;;;;;4961628;28;20043;-81
2023/10/16 12:25:39;;;;;;;3.15;0.82;;;;;;;;;;4945312;28;20464;-81
2023/10/16 12:28:08;;;;;;;2.53;0.77;;;;;;;;;;4956528;28;20046;-81
2023/10/16 12:30:36;;;;;;;3.47;0.70;;;;;;;;;;4939883;28;20118;-81
2023/10/16 12:33:06;;;;;;;2.97;0.60;;;;;;;;;;4945797;28;20510;-82
2023/10/16 12:35:36;;;;;;;2.00;0.55;;;;;;;;;;4955598;28;20035;-81
2023/10/16 12:38:05;;;;;;;4.32;0.80;;;;;;;;;;4962279;28;20039;-80
2023/10/16 12:40:34;;;;;;;2.85;0.65;;;;;;;;;;4939283;28;20510;-81
2023/10/16 12:43:00;;;;;;;3.58;0.60;;;;;;;;;;4971776;28;20035;-80
2023/10/16 12:45:29;;;;;;;4.85;1.05;;;;;;;;;;4955815;28;20078;-81
2023/10/16 12:47:55;;;;;;;2.97;0.60;;;;;;;;;;4953232;28;20411;-82
2023/10/16 12:50:25;;;;;;;3.78;0.65;;;;;;;;;;4937892;28;20047;-81
2023/10/16 12:52:57;;;;;;;3.78;0.65;;;;;;;;;;4944618;28;20032;-81
2023/10/16 12:55:26;;;;;;;1.63;0.40;;;;;;;;;;4938739;28;20600;-82
2023/10/16 12:57:53;;;;;;;2.03;0.60;;;;;;;;;;4938439;28;20038;-83
2023/10/16 13:00:21;;;;;;;2.17;0.63;;;;;;;;;;4955570;28;20043;-83
2023/10/16 13:02:51;;;;;;;4.43;0.88;;;;;;;;;;4945130;28;20035;-80
2023/10/16 13:05:24;;;;;;;2.08;0.55;;;;;;;;;;4977166;28;20085;-81
2023/10/16 13:07:53;;;;;;;4.43;0.68;;;;;;;;;;4939653;28;20035;-82
2023/10/16 13:10:26;;;;;;;3.00;0.80;;;;;;;;;;4938227;28;20039;-79
2023/10/16 13:12:51;;;;;;;4.82;0.93;;;;;;;;;;4955463;28;20089;-81
2023/10/16 13:15:35;;;;;;;3.63;0.70;;;;;;;;;;4956213;28;20066;-81
2023/10/16 13:18:01;;;;;;;3.03;0.80;;;;;;;;;;4973925;28;20062;-82
2023/10/16 13:20:27;;;;;;;4.30;0.60;;;;;;;;;;4961693;28;20069;-83
2023/10/16 13:22:54;;;;;;;3.40;0.82;;;;;;;;;;4945769;28;20438;-83
2023/10/16 13:25:31;;;;;;;1.92;0.55;;;;;;;;;;4946787;28;20035;-82
2023/10/16 13:27:58;;;;;;;3.80;0.95;;;;;;;;;;4954523;28;20454;-82
2023/10/16 13:30:23;;;;;;;3.53;1.00;;;;;;;;;;4959476;28;20559;-80
2023/10/16 13:32:49;;;;;;;4.85;0.70;;;;;;;;;;4953878;28;20130;-83
2023/10/16 13:35:18;;;;;;;3.70;0.80;;;;;;;;;;4955656;28;20034;-80
2023/10/16 13:37:48;;;;;;;4.45;1.15;;;;;;;;;;4968020;28;21102;-83
2023/10/16 13:40:21;;;;;;;2.67;0.60;;;;;;;;;;4946425;28;20400;-84
2023/10/16 13:42:50;;;;;;;3.22;0.60;;;;;;;;;;4960089;28;20495;-82
2023/10/16 13:45:16;;;;;;;3.85;0.70;;;;;;;;;;4978153;28;20558;-84
2023/10/16 13:47:45;;;;;;;3.60;0.85;;;;;;;;;;4960974;28;20043;-82
2023/10/16 13:50:16;;;;;;;3.45;0.73;;;;;;;;;;4971369;28;20044;-82
2023/10/16 13:52:44;;;;;;;2.90;0.70;;;;;;;;;;4959875;28;20971;-84
2023/10/16 13:55:19;;;;;;;4.43;0.77;;;;;;;;;;4946753;28;20070;-82
2023/10/16 13:57:47;;;;;;;3.05;0.50;;;;;;;;;;4952787;28;20443;-83
2023/10/16 14:00:29;;;;;;;3.97;0.82;;;;;;;;;;4961483;28;20050;-82
2023/10/16 14:03:04;;;;;;;2.28;0.52;;;;;;;;;;4960568;28;20153;-82
2023/10/16 14:05:35;;;;;;;3.17;0.57;;;;;;;;;;4936933;28;20058;-83
2023/10/16 14:08:04;;;;;;;2.60;0.80;;;;;;;;;;4977450;28;20448;-83
2023/10/16 14:10:29;;;;;;;3.00;1.23;;;;;;;;;;4944978;28;20474;-84
2023/10/16 14:13:00;;;;;;;2.05;0.50;;;;;;;;;;4955619;28;20028;-81
2023/10/16 14:15:32;;;;;;;4.13;0.77;;;;;;;;;;4956009;28;20470;-82
2023/10/16 14:18:01;;;;;;;2.20;0.60;;;;;;;;;;4938436;28;20034;-82
2023/10/16 14:20:36;;;;;;;2.47;0.70;;;;;;;;;;4947299;28;20070;-80
2023/10/16 14:23:03;;;;;;;3.17;0.60;;;;;;;;;;4964737;28;20130;-82
2023/10/16 14:25:36;;;;;;;2.70;0.60;;;;;;;;;;4956855;28;20061;-81
2023/10/16 14:30:46;;;;;;;2.40;0.60;;;;;;;;;;4951655;28;20046;-81
2023/10/16 14:33:12;;;;;;;3.13;0.70;;;;;;;;;;4964308;28;20627;-82
2023/10/16 14:35:38;;;;;;;2.78;0.75;;;;;;;;;;4959772;28;20041;-82
2023/10/16 14:38:05;;;;;;;2.90;0.80;;;;;;;;;;4943846;28;20039;-81
2023/10/16 14:40:35;;;;;;;2.95;0.80;;;;;;;;;;4973161;28;20447;-80
2023/10/16 14:43:01;;;;;;;3.40;0.60;;;;;;;;;;4974231;28;20043;-81
2023/10/16 14:45:26;;;;;;;2.42;0.73;;;;;;;;;;4947502;28;21006;-81
2023/10/16 14:47:52;;;;;;;2.10;0.55;;;;;;;;;;4973478;28;20039;-83
2023/10/16 14:50:18;;;;;;;3.67;0.60;;;;;;;;;;4946887;28;20046;-81
2023/10/16 14:52:47;;;;;;;4.05;0.70;;;;;;;;;;4955239;28;20109;-81
2023/10/16 14:55:13;;;;;;;2.15;0.43;;;;;;;;;;4942101;28;20051;-81
2023/10/16 14:57:39;;;;;;;2.30;0.50;;;;;;;;;;4958164;28;20117;-82
2023/10/16 15:00:05;;;;;;;2.03;0.60;;;;;;;;;;4947768;28;20129;-81
2023/10/16 15:02:32;;;;;;;1.58;0.52;;;;;;;;;;4938934;28;20683;-82
2023/10/16 15:04:58;;;;;;;1.90;0.70;;;;;;;;;;4958018;28;20054;-83
2023/10/16 15:07:24;;;;;;;3.30;0.80;;;;;;;;;;4943372;28;20043;-83
2023/10/16 15:09:50;;;;;;;2.80;0.63;;;;;;;;;;4964664;28;20046;-79
2023/10/16 15:12:16;;;;;;;3.45;0.70;;;;;;;;;;4945926;28;20046;-79
2023/10/16 15:14:41;;;;;;;2.58;0.70;;;;;;;;;;4958784;28;20039;-78
2023/10/16 15:17:07;;;;;;;2.40;0.50;;;;;;;;;;4957507;28;20039;-80
2023/10/16 15:19:34;;;;;;;2.53;0.68;;;;;;;;;;4972868;28;20496;-79
2023/10/16 15:21:59;;;;;;;2.53;0.80;;;;;;;;;;4963036;28;20076;-79
2023/10/16 15:24:25;;;;;;;3.20;0.80;;;;;;;;;;4957474;28;20499;-80
2023/10/16 15:26:50;;;;;;;2.95;0.77;;;;;;;;;;4959133;28;20065;-80
2023/10/16 15:29:16;;;;;;;3.97;0.70;;;;;;;;;;4963556;28;20043;-80
2023/10/16 15:31:42;;;;;;;3.38;0.90;;;;;;;;;;4974416;28;20041;-82
2023/10/16 15:34:08;;;;;;;4.18;0.80;;;;;;;;;;4940728;28;20039;-81
2023/10/16 15:36:36;;;;;;;2.25;0.80;;;;;;;;;;4937413;28;20043;-81
2023/10/16 15:39:01;;;;;;;4.18;0.70;;;;;;;;;;4943281;28;20035;-81
2023/10/16 15:41:27;;;;;;;2.20;0.63;;;;;;;;;;4927114;28;20039;-81
2023/10/16 15:43:55;;;;;;;4.25;0.80;;;;;;;;;;4957012;28;20035;-82
2023/10/16 15:46:20;;;;;;;3.83;0.60;;;;;;;;;;4956418;28;20106;-81
2023/10/16 15:48:46;;;;;;;3.78;0.80;;;;;;;;;;4956506;28;20047;-82
2023/10/16 15:51:24;;;;;;;6.45;1.15;;;;;;;;;;4947566;28;20145;-79
2023/10/16 15:53:51;;;;;;;4.85;1.17;;;;;;;;;;4954033;28;20035;-81
2023/10/16 15:56:21;;;;;;;5.22;0.95;;;;;;;;;;4962446;28;20067;-81
2023/10/16 15:58:47;;;;;;;4.30;0.98;;;;;;;;;;4946461;28;20507;-81
2023/10/16 16:01:13;;;;;;;3.55;1.00;;;;;;;;;;4958793;28;20090;-81
2023/10/16 16:03:39;;;;;;;2.88;0.80;;;;;;;;;;4974165;28;20039;-82
2023/10/16 16:06:15;;;;;;;3.17;0.70;;;;;;;;;;4956081;28;20043;-78
2023/10/16 16:09:01;;;;;;;2.97;0.88;;;;;;;;;;4950742;28;20121;-80
2023/10/16 16:11:28;;;;;;;2.97;0.90;;;;;;;;;;4923729;29;20052;-80
2023/10/16 16:13:53;;;;;;;2.40;0.57;;;;;;;;;;4891791;29;20440;-81
2023/10/16 16:16:21;;;;;;;3.20;0.70;;;;;;;;;;4924051;29;20047;-82
2023/10/16 16:18:47;;;;;;;;;;;;;;;;;;4892784;29;20036;-82
2023/10/16 16:21:16;;;;;;;2.60;1.00;;;;;;;;;;4922729;29;19954;-81
2023/10/16 16:23:42;;;;;;;4.38;1.10;;;;;;;;;;4908263;29;20035;-81
2023/10/16 16:26:11;;;;;;;4.32;1.00;;;;;;;;;;4924448;29;20051;-82
2023/10/16 16:28:36;;;;;;;4.47;1.40;;;;;;;;;;4912292;29;20105;-81
2023/10/16 16:31:02;;;;;;;4.60;1.15;;;;;;;;;;4908231;29;20687;-82
2023/10/16 16:33:29;;;;;;;4.15;1.25;;;;;;;;;;4924669;29;20039;-82
2023/10/16 16:35:56;;;;;;;5.15;1.70;;;;;;;;;;4908127;29;20086;-82
2023/10/16 16:38:22;;;;;;;5.00;1.38;;;;;;;;;;4912436;29;20408;-81
2023/10/16 16:40:48;;;;;;;4.45;1.50;;;;;;;;;;4906780;29;20039;-82
2023/10/16 16:43:18;;;;;;;2.53;1.08;;;;;;;;;;4922070;29;20035;-83
2023/10/16 16:45:45;;;;;;;4.15;1.40;;;;;;;;;;4911964;29;20500;-82
2023/10/16 16:48:12;;;;;;;3.35;1.50;;;;;;;;;;4937309;28;20038;-82
2023/10/16 16:50:38;;;;;;;4.43;1.50;;;;;;;;;;4946530;28;20054;-81
2023/10/16 16:53:05;;;;;;;5.50;1.80;;;;;;;;;;4954817;28;20039;-81
2023/10/16 16:55:30;;;;;;;5.43;1.80;;;;;;;;;;4952655;28;20139;-81
2023/10/16 16:57:56;;;;;;;4.95;2.35;;;;;;;;;;4966595;28;20055;-81
2023/10/16 17:00:26;;;;;;;4.72;1.85;;;;;;;;;;4956071;28;20066;-82
2023/10/16 17:02:51;;;;;;;4.22;1.70;;;;;;;;;;4938563;28;20043;-80